sensor_id;sensor_type;location;lat;lon;timestamp;P1;durP1;ratioP1;P2;durP2;ratioP2
7941;SDS011;4016;50.758;7.150;2023-02-12T00:03:23;22.03;;;14.70;;
7941;SDS011;4016;50.758;7.150;2023-02-12T00:08:23;23.30;;;14.57;;
7941;SDS011;4016;50.758;7.150;2023-02-12T00:13:24;22.83;;;14.73;;
7941;SDS011;4016;50.758;7.150;2023-02-12T00:18:24;23.97;;;15.23;;
7941;SDS011;4016;50.758;7.150;2023-02-12T00:23:25;24.97;;;15.10;;
7941;SDS011;4016;50.758;7.150;2023-02-12T00:28:25;20.90;;;14.47;;
7941;SDS011;4016;50.758;7.150;2023-02-12T00:33:26;21.23;;;14.40;;
7941;SDS011;4016;50.758;7.150;2023-02-12T00:38:26;22.27;;;14.30;;
7941;SDS011;4016;50.758;7.150;2023-02-12T00:43:27;17.17;;;13.40;;
7941;SDS011;4016;50.758;7.150;2023-02-12T00:48:27;22.17;;;13.87;;
7941;SDS011;4016;50.758;7.150;2023-02-12T00:53:28;20.80;;;13.37;;
7941;SDS011;4016;50.758;7.150;2023-02-12T00:58:28;21.13;;;13.33;;
7941;SDS011;4016;50.758;7.150;2023-02-12T01:03:29;20.60;;;13.60;;
7941;SDS011;4016;50.758;7.150;2023-02-12T01:08:29;22.83;;;14.27;;
7941;SDS011;4016;50.758;7.150;2023-02-12T01:13:30;20.43;;;13.53;;
7941;SDS011;4016;50.758;7.150;2023-02-12T01:18:32;20.80;;;13.43;;
7941;SDS011;4016;50.758;7.150;2023-02-12T01:23:32;20.13;;;12.87;;
7941;SDS011;4016;50.758;7.150;2023-02-12T01:28:33;16.73;;;12.93;;
7941;SDS011;4016;50.758;7.150;2023-02-12T01:33:33;19.47;;;12.73;;
7941;SDS011;4016;50.758;7.150;2023-02-12T01:38:33;19.77;;;12.90;;
7941;SDS011;4016;50.758;7.150;2023-02-12T01:43:34;22.53;;;12.80;;
7941;SDS011;4016;50.758;7.150;2023-02-12T01:48:39;19.47;;;13.57;;
7941;SDS011;4016;50.758;7.150;2023-02-12T01:53:43;20.80;;;14.13;;
7941;SDS011;4016;50.758;7.150;2023-02-12T01:58:48;16.70;;;12.00;;
7941;SDS011;4016;50.758;7.150;2023-02-12T02:03:52;21.20;;;14.00;;
7941;SDS011;4016;50.758;7.150;2023-02-12T02:08:57;19.70;;;13.50;;
7941;SDS011;4016;50.758;7.150;2023-02-12T02:13:57;21.13;;;12.60;;
7941;SDS011;4016;50.758;7.150;2023-02-12T02:19:29;21.77;;;13.70;;
7941;SDS011;4016;50.758;7.150;2023-02-12T02:25:01;19.27;;;12.43;;
7941;SDS011;4016;50.758;7.150;2023-02-12T02:35:40;21.57;;;12.73;;
7941;SDS011;4016;50.758;7.150;2023-02-12T02:46:15;19.13;;;12.40;;
7941;SDS011;4016;50.758;7.150;2023-02-12T02:51:21;19.83;;;13.10;;
7941;SDS011;4016;50.758;7.150;2023-02-12T02:56:25;19.73;;;13.23;;
7941;SDS011;4016;50.758;7.150;2023-02-12T03:01:31;18.03;;;13.90;;
7941;SDS011;4016;50.758;7.150;2023-02-12T03:06:45;23.67;;;12.83;;
7941;SDS011;4016;50.758;7.150;2023-02-12T03:11:50;21.60;;;13.47;;
7941;SDS011;4016;50.758;7.150;2023-02-12T03:16:58;18.97;;;13.33;;
7941;SDS011;4016;50.758;7.150;2023-02-12T03:22:15;22.60;;;13.43;;
7941;SDS011;4016;50.758;7.150;2023-02-12T03:27:20;18.10;;;13.50;;
7941;SDS011;4016;50.758;7.150;2023-02-12T03:37:43;23.13;;;13.93;;
7941;SDS011;4016;50.758;7.150;2023-02-12T03:43:07;21.47;;;13.23;;
7941;SDS011;4016;50.758;7.150;2023-02-12T03:48:55;22.03;;;14.17;;
7941;SDS011;4016;50.758;7.150;2023-02-12T03:53:29;21.07;;;13.20;;
7941;SDS011;4016;50.758;7.150;2023-02-12T03:58:31;18.40;;;11.80;;
7941;SDS011;4016;50.758;7.150;2023-02-12T04:03:34;22.00;;;13.47;;
7941;SDS011;4016;50.758;7.150;2023-02-12T04:08:35;18.87;;;11.97;;
7941;SDS011;4016;50.758;7.150;2023-02-12T04:13:39;16.30;;;13.17;;
7941;SDS011;4016;50.758;7.150;2023-02-12T04:18:45;16.57;;;12.17;;
7941;SDS011;4016;50.758;7.150;2023-02-12T04:29:04;20.50;;;12.50;;
7941;SDS011;4016;50.758;7.150;2023-02-12T04:34:31;18.93;;;12.73;;
7941;SDS011;4016;50.758;7.150;2023-02-12T04:39:44;19.07;;;11.83;;
7941;SDS011;4016;50.758;7.150;2023-02-12T04:44:45;17.83;;;12.33;;
7941;SDS011;4016;50.758;7.150;2023-02-12T04:49:46;17.27;;;11.67;;
7941;SDS011;4016;50.758;7.150;2023-02-12T04:54:46;17.57;;;11.17;;
7941;SDS011;4016;50.758;7.150;2023-02-12T04:59:47;17.50;;;11.73;;
7941;SDS011;4016;50.758;7.150;2023-02-12T05:04:48;18.20;;;12.43;;
7941;SDS011;4016;50.758;7.150;2023-02-12T05:09:49;19.63;;;12.27;;
7941;SDS011;4016;50.758;7.150;2023-02-12T05:14:49;18.50;;;12.57;;
7941;SDS011;4016;50.758;7.150;2023-02-12T05:19:50;20.37;;;14.17;;
7941;SDS011;4016;50.758;7.150;2023-02-12T05:24:50;19.37;;;13.23;;
7941;SDS011;4016;50.758;7.150;2023-02-12T05:29:50;22.57;;;13.30;;
7941;SDS011;4016;50.758;7.150;2023-02-12T05:34:51;18.90;;;12.90;;
7941;SDS011;4016;50.758;7.150;2023-02-12T05:39:51;21.53;;;13.37;;
7941;SDS011;4016;50.758;7.150;2023-02-12T05:44:52;20.43;;;13.33;;
7941;SDS011;4016;50.758;7.150;2023-02-12T05:49:53;20.23;;;13.30;;
7941;SDS011;4016;50.758;7.150;2023-02-12T05:54:53;20.57;;;12.80;;
7941;SDS011;4016;50.758;7.150;2023-02-12T05:59:53;19.63;;;13.43;;
7941;SDS011;4016;50.758;7.150;2023-02-12T06:04:54;18.47;;;12.00;;
7941;SDS011;4016;50.758;7.150;2023-02-12T06:09:54;17.10;;;11.97;;
7941;SDS011;4016;50.758;7.150;2023-02-12T06:14:55;17.00;;;11.33;;
7941;SDS011;4016;50.758;7.150;2023-02-12T06:19:55;19.73;;;12.93;;
7941;SDS011;4016;50.758;7.150;2023-02-12T06:24:55;19.37;;;11.83;;
7941;SDS011;4016;50.758;7.150;2023-02-12T06:29:56;22.43;;;11.97;;
7941;SDS011;4016;50.758;7.150;2023-02-12T06:34:56;16.73;;;10.50;;
7941;SDS011;4016;50.758;7.150;2023-02-12T06:39:56;16.57;;;11.30;;
7941;SDS011;4016;50.758;7.150;2023-02-12T06:44:57;16.70;;;11.17;;
7941;SDS011;4016;50.758;7.150;2023-02-12T06:49:57;20.97;;;12.03;;
7941;SDS011;4016;50.758;7.150;2023-02-12T06:54:58;19.77;;;12.47;;
7941;SDS011;4016;50.758;7.150;2023-02-12T06:59:58;21.43;;;13.47;;
7941;SDS011;4016;50.758;7.150;2023-02-12T07:04:58;18.20;;;12.17;;
7941;SDS011;4016;50.758;7.150;2023-02-12T07:09:59;19.20;;;12.10;;
7941;SDS011;4016;50.758;7.150;2023-02-12T07:14:59;19.73;;;13.13;;
7941;SDS011;4016;50.758;7.150;2023-02-12T07:20:00;20.90;;;12.33;;
7941;SDS011;4016;50.758;7.150;2023-02-12T07:25:00;19.40;;;12.27;;
7941;SDS011;4016;50.758;7.150;2023-02-12T07:30:01;19.27;;;12.33;;
7941;SDS011;4016;50.758;7.150;2023-02-12T07:35:02;18.00;;;12.13;;
7941;SDS011;4016;50.758;7.150;2023-02-12T07:40:02;19.03;;;13.17;;
7941;SDS011;4016;50.758;7.150;2023-02-12T07:45:03;24.13;;;13.60;;
7941;SDS011;4016;50.758;7.150;2023-02-12T07:50:04;20.83;;;12.40;;
7941;SDS011;4016;50.758;7.150;2023-02-12T07:55:06;23.07;;;13.87;;
7941;SDS011;4016;50.758;7.150;2023-02-12T08:00:07;20.43;;;12.50;;
7941;SDS011;4016;50.758;7.150;2023-02-12T08:05:08;18.50;;;11.97;;
7941;SDS011;4016;50.758;7.150;2023-02-12T08:10:08;22.13;;;13.07;;
7941;SDS011;4016;50.758;7.150;2023-02-12T08:15:09;25.40;;;14.30;;
7941;SDS011;4016;50.758;7.150;2023-02-12T08:20:10;21.40;;;12.80;;
7941;SDS011;4016;50.758;7.150;2023-02-12T08:25:10;22.63;;;12.97;;
7941;SDS011;4016;50.758;7.150;2023-02-12T08:30:11;28.10;;;15.33;;
7941;SDS011;4016;50.758;7.150;2023-02-12T08:35:11;25.47;;;15.97;;
7941;SDS011;4016;50.758;7.150;2023-02-12T08:40:12;25.73;;;14.83;;
7941;SDS011;4016;50.758;7.150;2023-02-12T08:45:13;27.03;;;15.13;;
7941;SDS011;4016;50.758;7.150;2023-02-12T08:50:13;28.50;;;15.23;;
7941;SDS011;4016;50.758;7.150;2023-02-12T08:55:15;30.20;;;15.90;;
7941;SDS011;4016;50.758;7.150;2023-02-12T09:00:15;27.07;;;15.17;;
7941;SDS011;4016;50.758;7.150;2023-02-12T09:05:16;26.87;;;15.63;;
7941;SDS011;4016;50.758;7.150;2023-02-12T09:10:17;28.07;;;15.07;;
7941;SDS011;4016;50.758;7.150;2023-02-12T09:15:17;24.30;;;14.77;;
7941;SDS011;4016;50.758;7.150;2023-02-12T09:20:18;27.07;;;15.73;;
7941;SDS011;4016;50.758;7.150;2023-02-12T09:25:19;29.07;;;15.70;;
7941;SDS011;4016;50.758;7.150;2023-02-12T09:30:19;29.60;;;15.80;;
7941;SDS011;4016;50.758;7.150;2023-02-12T09:35:19;28.27;;;16.90;;
7941;SDS011;4016;50.758;7.150;2023-02-12T09:51:29;40.87;;;19.47;;
7941;SDS011;4016;50.758;7.150;2023-02-12T09:56:31;34.03;;;17.20;;
7941;SDS011;4016;50.758;7.150;2023-02-12T10:01:34;35.03;;;18.47;;
7941;SDS011;4016;50.758;7.150;2023-02-12T10:06:36;33.83;;;18.37;;
7941;SDS011;4016;50.758;7.150;2023-02-12T10:12:03;32.47;;;19.03;;
7941;SDS011;4016;50.758;7.150;2023-02-12T10:22:59;34.60;;;19.57;;
7941;SDS011;4016;50.758;7.150;2023-02-12T10:28:14;33.03;;;18.27;;
7941;SDS011;4016;50.758;7.150;2023-02-12T10:33:20;30.90;;;18.63;;
7941;SDS011;4016;50.758;7.150;2023-02-12T10:38:35;30.93;;;16.53;;
7941;SDS011;4016;50.758;7.150;2023-02-12T10:43:38;26.60;;;15.23;;
7941;SDS011;4016;50.758;7.150;2023-02-12T10:48:39;24.33;;;15.13;;
7941;SDS011;4016;50.758;7.150;2023-02-12T10:53:43;26.10;;;14.37;;
7941;SDS011;4016;50.758;7.150;2023-02-12T10:58:52;27.33;;;15.67;;
7941;SDS011;4016;50.758;7.150;2023-02-12T11:04:06;29.40;;;15.23;;
7941;SDS011;4016;50.758;7.150;2023-02-12T11:09:26;25.10;;;14.23;;
7941;SDS011;4016;50.758;7.150;2023-02-12T11:14:28;27.23;;;13.87;;
7941;SDS011;4016;50.758;7.150;2023-02-12T11:19:30;23.77;;;13.07;;
7941;SDS011;4016;50.758;7.150;2023-02-12T11:24:32;28.03;;;15.93;;
7941;SDS011;4016;50.758;7.150;2023-02-12T11:29:34;29.57;;;15.03;;
7941;SDS011;4016;50.758;7.150;2023-02-12T11:34:34;22.17;;;15.00;;
7941;SDS011;4016;50.758;7.150;2023-02-12T11:39:35;24.53;;;13.97;;
7941;SDS011;4016;50.758;7.150;2023-02-12T11:44:38;24.20;;;14.67;;
7941;SDS011;4016;50.758;7.150;2023-02-12T11:49:49;24.97;;;13.63;;
7941;SDS011;4016;50.758;7.150;2023-02-12T11:55:02;23.53;;;14.20;;
7941;SDS011;4016;50.758;7.150;2023-02-12T12:05:44;20.40;;;12.27;;
7941;SDS011;4016;50.758;7.150;2023-02-12T12:10:54;18.33;;;11.67;;
7941;SDS011;4016;50.758;7.150;2023-02-12T12:16:03;17.53;;;11.47;;
7941;SDS011;4016;50.758;7.150;2023-02-12T12:21:49;18.33;;;11.30;;
7941;SDS011;4016;50.758;7.150;2023-02-12T12:27:02;18.73;;;11.47;;
7941;SDS011;4016;50.758;7.150;2023-02-12T12:32:45;20.90;;;11.03;;
7941;SDS011;4016;50.758;7.150;2023-02-12T12:37:51;17.97;;;11.17;;
7941;SDS011;4016;50.758;7.150;2023-02-12T12:43:07;17.97;;;11.43;;
7941;SDS011;4016;50.758;7.150;2023-02-12T12:54:06;17.97;;;10.87;;
7941;SDS011;4016;50.758;7.150;2023-02-12T13:10:20;17.60;;;10.13;;
7941;SDS011;4016;50.758;7.150;2023-02-12T13:21:00;20.80;;;11.90;;
7941;SDS011;4016;50.758;7.150;2023-02-12T13:31:46;18.37;;;11.80;;
7941;SDS011;4016;50.758;7.150;2023-02-12T13:36:50;19.93;;;11.53;;
7941;SDS011;4016;50.758;7.150;2023-02-12T13:41:55;18.57;;;11.77;;
7941;SDS011;4016;50.758;7.150;2023-02-12T13:47:09;17.93;;;11.23;;
7941;SDS011;4016;50.758;7.150;2023-02-12T13:57:30;16.27;;;10.80;;
7941;SDS011;4016;50.758;7.150;2023-02-12T14:07:43;17.40;;;11.03;;
7941;SDS011;4016;50.758;7.150;2023-02-12T14:12:46;17.90;;;11.63;;
7941;SDS011;4016;50.758;7.150;2023-02-12T14:17:52;17.90;;;11.57;;
7941;SDS011;4016;50.758;7.150;2023-02-12T14:28:23;17.60;;;11.43;;
7941;SDS011;4016;50.758;7.150;2023-02-12T14:33:28;16.17;;;9.50;;
7941;SDS011;4016;50.758;7.150;2023-02-12T14:48:54;14.27;;;8.87;;
7941;SDS011;4016;50.758;7.150;2023-02-12T14:53:58;11.60;;;7.90;;
7941;SDS011;4016;50.758;7.150;2023-02-12T14:59:00;13.03;;;8.20;;
7941;SDS011;4016;50.758;7.150;2023-02-12T15:04:15;13.23;;;7.77;;
7941;SDS011;4016;50.758;7.150;2023-02-12T15:09:30;8.83;;;7.13;;
7941;SDS011;4016;50.758;7.150;2023-02-12T15:14:35;9.97;;;7.57;;
7941;SDS011;4016;50.758;7.150;2023-02-12T15:25:21;8.77;;;5.90;;
7941;SDS011;4016;50.758;7.150;2023-02-12T15:30:24;8.00;;;5.60;;
7941;SDS011;4016;50.758;7.150;2023-02-12T15:35:30;6.53;;;4.97;;
7941;SDS011;4016;50.758;7.150;2023-02-12T15:40:33;6.43;;;4.60;;
7941;SDS011;4016;50.758;7.150;2023-02-12T15:45:34;6.13;;;4.60;;
7941;SDS011;4016;50.758;7.150;2023-02-12T15:50:53;6.07;;;4.60;;
7941;SDS011;4016;50.758;7.150;2023-02-12T15:55:57;7.53;;;4.87;;
7941;SDS011;4016;50.758;7.150;2023-02-12T16:01:00;7.33;;;4.60;;
7941;SDS011;4016;50.758;7.150;2023-02-12T16:06:03;4.87;;;4.23;;
7941;SDS011;4016;50.758;7.150;2023-02-12T16:11:12;5.07;;;4.20;;
7941;SDS011;4016;50.758;7.150;2023-02-12T16:21:49;6.97;;;4.40;;
7941;SDS011;4016;50.758;7.150;2023-02-12T16:26:56;5.50;;;4.17;;
7941;SDS011;4016;50.758;7.150;2023-02-12T16:32:24;5.40;;;3.90;;
7941;SDS011;4016;50.758;7.150;2023-02-12T16:47:48;5.37;;;4.47;;
7941;SDS011;4016;50.758;7.150;2023-02-12T16:52:49;4.77;;;3.87;;
7941;SDS011;4016;50.758;7.150;2023-02-12T16:58:00;4.77;;;4.07;;
7941;SDS011;4016;50.758;7.150;2023-02-12T17:03:00;4.30;;;3.70;;
7941;SDS011;4016;50.758;7.150;2023-02-12T17:08:00;5.50;;;3.93;;
7941;SDS011;4016;50.758;7.150;2023-02-12T17:13:01;4.70;;;3.53;;
7941;SDS011;4016;50.758;7.150;2023-02-12T17:18:01;4.90;;;3.80;;
7941;SDS011;4016;50.758;7.150;2023-02-12T17:23:02;5.03;;;3.70;;
7941;SDS011;4016;50.758;7.150;2023-02-12T17:28:03;5.03;;;3.60;;
7941;SDS011;4016;50.758;7.150;2023-02-12T17:33:04;5.57;;;4.33;;
7941;SDS011;4016;50.758;7.150;2023-02-12T17:38:05;4.30;;;3.90;;
7941;SDS011;4016;50.758;7.150;2023-02-12T17:43:05;5.50;;;4.43;;
7941;SDS011;4016;50.758;7.150;2023-02-12T17:48:06;4.97;;;4.00;;
7941;SDS011;4016;50.758;7.150;2023-02-12T17:53:07;5.10;;;3.67;;
7941;SDS011;4016;50.758;7.150;2023-02-12T17:58:08;5.00;;;4.20;;
7941;SDS011;4016;50.758;7.150;2023-02-12T18:03:08;4.60;;;3.77;;
7941;SDS011;4016;50.758;7.150;2023-02-12T18:08:09;4.90;;;3.67;;
7941;SDS011;4016;50.758;7.150;2023-02-12T18:13:09;4.53;;;3.83;;
7941;SDS011;4016;50.758;7.150;2023-02-12T18:18:10;4.63;;;4.13;;
7941;SDS011;4016;50.758;7.150;2023-02-12T18:23:11;5.07;;;3.73;;
7941;SDS011;4016;50.758;7.150;2023-02-12T18:28:11;6.50;;;4.37;;
7941;SDS011;4016;50.758;7.150;2023-02-12T18:33:12;6.43;;;4.47;;
7941;SDS011;4016;50.758;7.150;2023-02-12T18:38:12;5.10;;;4.47;;
7941;SDS011;4016;50.758;7.150;2023-02-12T18:43:12;5.57;;;5.07;;
7941;SDS011;4016;50.758;7.150;2023-02-12T18:48:13;6.47;;;4.63;;
7941;SDS011;4016;50.758;7.150;2023-02-12T18:53:13;6.10;;;5.03;;
7941;SDS011;4016;50.758;7.150;2023-02-12T18:58:14;8.07;;;5.60;;
7941;SDS011;4016;50.758;7.150;2023-02-12T19:03:14;8.73;;;6.10;;
7941;SDS011;4016;50.758;7.150;2023-02-12T19:08:15;6.67;;;5.30;;
7941;SDS011;4016;50.758;7.150;2023-02-12T19:13:16;9.27;;;5.70;;
7941;SDS011;4016;50.758;7.150;2023-02-12T19:18:16;9.40;;;5.50;;
7941;SDS011;4016;50.758;7.150;2023-02-12T19:23:18;8.93;;;5.23;;
7941;SDS011;4016;50.758;7.150;2023-02-12T19:28:18;6.20;;;5.03;;
7941;SDS011;4016;50.758;7.150;2023-02-12T19:33:19;6.47;;;4.67;;
7941;SDS011;4016;50.758;7.150;2023-02-12T19:38:19;6.67;;;4.93;;
7941;SDS011;4016;50.758;7.150;2023-02-12T19:43:20;7.10;;;5.43;;
7941;SDS011;4016;50.758;7.150;2023-02-12T19:48:20;7.93;;;5.43;;
7941;SDS011;4016;50.758;7.150;2023-02-12T19:53:20;5.90;;;4.83;;
7941;SDS011;4016;50.758;7.150;2023-02-12T19:58:21;5.83;;;3.83;;
7941;SDS011;4016;50.758;7.150;2023-02-12T20:03:21;4.87;;;4.23;;
7941;SDS011;4016;50.758;7.150;2023-02-12T20:08:22;6.57;;;4.90;;
7941;SDS011;4016;50.758;7.150;2023-02-12T20:13:23;7.73;;;4.77;;
7941;SDS011;4016;50.758;7.150;2023-02-12T20:18:23;7.17;;;5.53;;
7941;SDS011;4016;50.758;7.150;2023-02-12T20:23:23;7.20;;;4.87;;
7941;SDS011;4016;50.758;7.150;2023-02-12T20:28:24;8.73;;;4.87;;
7941;SDS011;4016;50.758;7.150;2023-02-12T20:33:25;6.07;;;4.43;;
7941;SDS011;4016;50.758;7.150;2023-02-12T20:38:25;5.47;;;4.40;;
7941;SDS011;4016;50.758;7.150;2023-02-12T20:43:26;7.47;;;5.10;;
7941;SDS011;4016;50.758;7.150;2023-02-12T20:48:28;6.50;;;4.87;;
7941;SDS011;4016;50.758;7.150;2023-02-12T20:53:29;5.37;;;4.60;;
7941;SDS011;4016;50.758;7.150;2023-02-12T20:58:29;5.80;;;4.77;;
7941;SDS011;4016;50.758;7.150;2023-02-12T21:03:30;5.80;;;4.80;;
7941;SDS011;4016;50.758;7.150;2023-02-12T21:08:30;5.90;;;5.30;;
7941;SDS011;4016;50.758;7.150;2023-02-12T21:13:31;6.53;;;5.57;;
7941;SDS011;4016;50.758;7.150;2023-02-12T21:18:31;7.13;;;5.50;;
7941;SDS011;4016;50.758;7.150;2023-02-12T21:23:32;6.80;;;5.60;;
7941;SDS011;4016;50.758;7.150;2023-02-12T21:28:33;7.97;;;5.90;;
7941;SDS011;4016;50.758;7.150;2023-02-12T21:33:34;10.23;;;6.70;;
7941;SDS011;4016;50.758;7.150;2023-02-12T21:38:36;11.67;;;7.33;;
7941;SDS011;4016;50.758;7.150;2023-02-12T21:43:39;10.57;;;7.20;;
7941;SDS011;4016;50.758;7.150;2023-02-12T21:48:41;10.97;;;7.33;;
7941;SDS011;4016;50.758;7.150;2023-02-12T21:53:42;9.77;;;6.77;;
7941;SDS011;4016;50.758;7.150;2023-02-12T21:58:42;13.03;;;7.77;;
7941;SDS011;4016;50.758;7.150;2023-02-12T22:03:43;10.57;;;7.43;;
7941;SDS011;4016;50.758;7.150;2023-02-12T22:08:44;10.13;;;7.27;;
7941;SDS011;4016;50.758;7.150;2023-02-12T22:13:45;12.53;;;7.03;;
7941;SDS011;4016;50.758;7.150;2023-02-12T22:18:46;9.57;;;6.67;;
7941;SDS011;4016;50.758;7.150;2023-02-12T22:23:48;10.53;;;7.00;;
7941;SDS011;4016;50.758;7.150;2023-02-12T22:28:50;10.80;;;7.67;;
7941;SDS011;4016;50.758;7.150;2023-02-12T22:34:12;10.97;;;7.47;;
7941;SDS011;4016;50.758;7.150;2023-02-12T22:39:14;11.60;;;6.87;;
7941;SDS011;4016;50.758;7.150;2023-02-12T22:44:16;13.13;;;8.53;;
7941;SDS011;4016;50.758;7.150;2023-02-12T22:49:16;12.23;;;7.77;;
7941;SDS011;4016;50.758;7.150;2023-02-12T22:54:17;12.73;;;8.13;;
7941;SDS011;4016;50.758;7.150;2023-02-12T22:59:18;12.37;;;7.37;;
7941;SDS011;4016;50.758;7.150;2023-02-12T23:04:18;12.70;;;7.73;;
7941;SDS011;4016;50.758;7.150;2023-02-12T23:09:18;13.87;;;8.27;;
7941;SDS011;4016;50.758;7.150;2023-02-12T23:14:19;11.83;;;8.00;;
7941;SDS011;4016;50.758;7.150;2023-02-12T23:19:20;12.40;;;8.10;;
7941;SDS011;4016;50.758;7.150;2023-02-12T23:24:20;12.27;;;7.97;;
7941;SDS011;4016;50.758;7.150;2023-02-12T23:29:21;11.27;;;7.53;;
7941;SDS011;4016;50.758;7.150;2023-02-12T23:34:21;14.10;;;8.33;;
7941;SDS011;4016;50.758;7.150;2023-02-12T23:39:22;11.97;;;7.83;;
7941;SDS011;4016;50.758;7.150;2023-02-12T23:44:22;10.33;;;7.17;;
7941;SDS011;4016;50.758;7.150;2023-02-12T23:49:22;10.00;;;6.53;;
7941;SDS011;4016;50.758;7.150;2023-02-12T23:54:23;12.97;;;7.27;;
7941;SDS011;4016;50.758;7.150;2023-02-12T23:59:24;8.67;;;6.77;;
